createdAt,value
2018-12-25T00:15:04.690Z,3.80
2018-12-25T00:25:58.215Z,3.30
2018-12-25T00:31:19.150Z,3.33
2018-12-25T00:36:41.883Z,2.70
2018-12-25T00:47:13.480Z,3.50
2018-12-25T00:58:04.455Z,4.37
2018-12-25T01:03:26.673Z,3.90
2018-12-25T01:08:48.287Z,4.70
2018-12-25T01:14:22.829Z,3.97
2018-12-25T01:24:38.460Z,4.30
2018-12-25T01:35:34.288Z,3.37
2018-12-25T01:46:03.648Z,3.97
2018-12-25T01:51:18.021Z,2.20
2018-12-25T01:57:00.052Z,3.40
2018-12-25T02:02:14.628Z,4.00
2018-12-25T02:07:30.927Z,2.90
2018-12-25T02:12:46.692Z,2.80
2018-12-25T02:18:09.151Z,2.73
2018-12-25T02:23:30.623Z,2.57
2018-12-25T02:28:45.857Z,3.13
2018-12-25T02:34:01.068Z,4.10
2018-12-25T02:39:16.719Z,3.53
2018-12-25T02:44:20.059Z,3.40
2018-12-25T02:49:50.141Z,3.90
2018-12-25T03:00:43.100Z,3.17
2018-12-25T03:06:07.039Z,3.60
2018-12-25T03:11:49.226Z,4.13
2018-12-25T03:28:12.225Z,4.43
2018-12-25T03:38:42.435Z,3.03
2018-12-25T03:43:57.268Z,3.83
2018-12-25T03:49:18.619Z,3.40
2018-12-25T03:59:55.350Z,4.00
2018-12-25T04:05:13.215Z,4.57
2018-12-25T04:10:36.797Z,4.43
2018-12-25T04:15:51.843Z,3.90
2018-12-25T04:21:06.799Z,3.90
2018-12-25T04:26:21.593Z,4.67
2018-12-25T04:42:12.515Z,5.03
2018-12-25T04:52:29.334Z,4.37
2018-12-25T05:18:41.584Z,5.03
2018-12-25T05:23:43.495Z,3.67
2018-12-25T05:28:58.855Z,4.63
2018-12-25T05:44:28.085Z,5.47
2018-12-25T06:05:52.385Z,4.73
2018-12-25T06:16:28.556Z,4.57
2018-12-25T06:27:05.030Z,4.60
2018-12-25T06:37:21.519Z,5.47
2018-12-25T07:03:40.529Z,5.30
2018-12-25T07:40:22.145Z,5.03
2018-12-25T07:45:23.947Z,5.23
2018-12-25T07:50:45.370Z,6.77
2018-12-25T08:01:21.692Z,5.50
2018-12-25T08:06:23.481Z,5.80
2018-12-25T08:11:45.033Z,6.57
2018-12-25T08:16:59.676Z,5.60
2018-12-25T08:22:01.463Z,4.67
2018-12-25T09:31:18.606Z,3.97
2018-12-25T09:52:02.764Z,5.57
2018-12-25T10:02:31.770Z,3.83
2018-12-25T10:07:33.571Z,4.67
2018-12-25T10:28:31.903Z,4.50
2018-12-25T10:33:46.601Z,5.40
2018-12-25T10:38:48.475Z,3.63
2018-12-25T10:43:50.222Z,4.70
2018-12-25T10:54:13.101Z,4.73
2018-12-25T11:52:28.189Z,4.73
2018-12-25T12:02:44.962Z,5.60
2018-12-25T12:07:46.870Z,5.80
2018-12-25T12:12:48.631Z,4.60
2018-12-25T12:17:50.303Z,3.50
2018-12-25T12:29:12.708Z,6.13
2018-12-25T12:39:46.464Z,3.80
2018-12-25T12:44:48.261Z,5.83
2018-12-25T13:00:50.516Z,4.80
2018-12-25T13:16:34.378Z,4.93
2018-12-25T13:21:36.101Z,4.73
2018-12-25T13:26:59.424Z,5.30
2018-12-25T13:47:44.655Z,3.63
2018-12-25T13:52:46.456Z,3.70
2018-12-25T13:57:48.207Z,4.30
2018-12-25T14:02:50.026Z,4.67
2018-12-25T14:07:52.032Z,5.63
2018-12-25T14:12:53.811Z,3.80
2018-12-25T14:17:55.832Z,3.80
2018-12-25T14:22:57.558Z,4.87
2018-12-25T14:27:59.240Z,3.77
2018-12-25T14:33:00.933Z,4.80
2018-12-25T14:38:02.600Z,4.53
2018-12-25T14:43:04.264Z,3.13
2018-12-25T14:48:06.022Z,4.00
2018-12-25T14:53:07.792Z,3.73
2018-12-25T14:58:09.547Z,5.17
2018-12-25T15:03:11.336Z,6.50
2018-12-25T15:08:15.513Z,4.83
2018-12-25T15:13:17.597Z,5.60
2018-12-25T15:18:19.350Z,6.23
2018-12-25T15:23:28.208Z,6.17
2018-12-25T15:28:24.602Z,6.30
2018-12-25T15:33:26.280Z,4.37
2018-12-25T15:38:27.910Z,6.30
2018-12-25T15:43:29.638Z,6.13
2018-12-25T15:48:31.372Z,5.60
2018-12-25T15:53:36.990Z,6.00
2018-12-25T15:58:37.101Z,5.77
2018-12-25T16:03:38.775Z,6.30
2018-12-25T16:08:41.237Z,6.30
2018-12-25T16:13:43.202Z,6.40
2018-12-25T16:18:45.029Z,8.73
2018-12-25T16:23:46.724Z,6.83
2018-12-25T16:28:48.585Z,6.33
2018-12-25T16:33:50.293Z,4.77
2018-12-25T16:38:51.978Z,8.83
2018-12-25T16:43:53.950Z,5.73
2018-12-25T16:48:55.686Z,6.07
2018-12-25T16:53:57.622Z,6.93
2018-12-25T16:58:59.343Z,5.73
2018-12-25T17:04:01.232Z,7.53
2018-12-25T17:09:04.816Z,7.50
2018-12-25T17:14:06.820Z,5.70
2018-12-25T17:19:08.585Z,7.00
2018-12-25T17:24:10.416Z,6.93
2018-12-25T17:29:12.162Z,5.50
2018-12-25T17:34:13.836Z,5.80
2018-12-25T17:39:15.796Z,6.40
2018-12-25T17:44:17.678Z,5.60
2018-12-25T17:49:19.470Z,6.87
2018-12-25T17:54:21.488Z,7.50
2018-12-25T17:59:24.064Z,6.67
2018-12-25T18:04:26.327Z,5.63
2018-12-25T18:09:28.421Z,5.30
2018-12-25T18:14:30.221Z,6.63
2018-12-25T18:19:32.879Z,6.40
2018-12-25T18:24:34.605Z,8.50
2018-12-25T18:29:36.655Z,6.30
2018-12-25T18:34:38.912Z,6.37
2018-12-25T18:39:44.248Z,5.60
2018-12-25T18:44:46.171Z,4.40
2018-12-25T18:49:48.188Z,5.33
2018-12-25T18:54:49.968Z,5.40
2018-12-25T18:59:51.732Z,5.50
2018-12-25T19:04:53.779Z,5.47
2018-12-25T19:09:55.543Z,5.20
2018-12-25T19:14:57.637Z,5.10
2018-12-25T19:19:59.670Z,5.67
2018-12-25T19:25:01.337Z,6.73
2018-12-25T19:30:06.236Z,6.27
2018-12-25T19:35:07.865Z,7.00
2018-12-25T19:40:11.309Z,5.00
2018-12-25T19:45:13.615Z,5.83
2018-12-25T19:50:15.326Z,6.73
2018-12-25T19:55:17.077Z,6.17
2018-12-25T20:00:21.426Z,5.60
2018-12-25T20:05:27.332Z,5.50
2018-12-25T20:10:53.668Z,4.83
2018-12-25T20:16:21.739Z,4.93
2018-12-25T20:21:48.134Z,5.73
2018-12-25T20:27:13.155Z,6.57
2018-12-25T20:32:44.227Z,5.10
2018-12-25T20:37:58.347Z,6.70
2018-12-25T20:43:03.901Z,6.53
2018-12-25T20:48:17.892Z,6.23
2018-12-25T20:53:42.899Z,5.87
2018-12-25T20:58:54.755Z,6.40
2018-12-25T21:04:06.160Z,9.60
2018-12-25T21:09:37.719Z,8.27
2018-12-25T21:14:56.590Z,11.10
2018-12-25T21:20:19.281Z,9.80
2018-12-25T21:25:57.595Z,13.70
2018-12-25T21:30:59.368Z,12.80
2018-12-25T21:36:01.395Z,13.97
2018-12-25T21:41:03.274Z,14.93
2018-12-25T21:46:05.470Z,13.93
2018-12-25T21:51:07.224Z,13.30
2018-12-25T21:56:09.064Z,14.50
2018-12-25T22:01:11.322Z,12.37
2018-12-25T22:06:13.327Z,9.67
2018-12-25T22:11:16.322Z,9.00
2018-12-25T22:16:18.777Z,7.77
2018-12-25T22:21:20.838Z,6.90
2018-12-25T22:26:22.602Z,7.00
2018-12-25T22:31:24.629Z,5.63
2018-12-25T22:36:26.307Z,6.53
2018-12-25T22:41:27.998Z,5.97
2018-12-25T22:46:29.959Z,6.20
2018-12-25T22:51:31.640Z,7.10
2018-12-25T22:56:33.303Z,6.20
2018-12-25T23:01:35.444Z,5.53
2018-12-25T23:06:37.439Z,5.40
2018-12-25T23:11:39.387Z,5.43
2018-12-25T23:16:41.137Z,4.37
2018-12-25T23:21:42.781Z,4.23
2018-12-25T23:26:44.456Z,5.13
2018-12-25T23:31:46.450Z,5.63
2018-12-25T23:36:48.220Z,7.33
2018-12-25T23:41:50.223Z,8.80
2018-12-25T23:46:52.287Z,9.17
2018-12-25T23:51:54.100Z,8.13
2018-12-25T23:56:55.850Z,9.30
